Sable: Past 24 Hour Conditions

 

Bonavista

01:30 PM NST 27 January 2015
Disclaimer

This table is a summary of hourly weather conditions for the past 24 hours.
Please note that these observations might not always be representative of weather conditions over their associated marine area.

Date / Time
(NST)
Wind(knots) Conditions Visibility(km) Pressure(kPa) Air tempC) Relative humidity(%) Dew pointC) Wind Chill
27 January 2015
13:30 E 13 gust 18 N/A N/A 103.1 -7 71 -11 -15
12:30 ENE 14 N/A N/A 103.1 -7 68 -12 -15
11:30 NE 11 gust 16 N/A N/A 103.3 -8 67 -13 -15
10:30 NNE 7 N/A N/A 103.4 -8 64 -14 -14
9:30 NE 6 N/A N/A 103.4 -8 63 -14 -14
8:30 N 5 N/A N/A 103.4 -9 66 -14 -14
7:30 NNW 2 N/A N/A 103.3 -9 66 -15 -11
6:30 NW 10 N/A N/A 103.2 -9 68 -14 -16
5:30 NW 16 N/A N/A 103.1 -9 65 -14 -18
4:30 WNW 18 gust 24 N/A N/A 103.1 -9 61 -15 -19
3:30 WNW 18 gust 23 N/A N/A 103.0 -8 67 -14 -18
2:30 WNW 25 N/A N/A 102.9 -8 64 -14 -19
1:30 W 25 gust 32 N/A N/A 102.8 -8 63 -14 -19
0:30 W 27 gust 32 N/A N/A 102.7 -8 65 -13 -19
26 January 2015
23:30 WSW 23 gust 30 N/A N/A 102.6 -8 68 -13 -19
22:30 W 25 gust 31 N/A N/A 102.5 -8 67 -13 -18
21:30 WSW 22 gust 30 N/A N/A 102.3 -7 64 -13 -17
20:30 W 29 gust 37 N/A N/A 102.2 -7 58 -14 -18
19:30 W 33 gust 38 N/A N/A 101.9 -6 59 -13 -17
18:30 WSW 34 gust 39 N/A N/A 101.8 -5 60 -12 -16
17:30 WSW 31 gust 38 N/A N/A 101.6 -5 60 -12 -15
16:30 WSW 30 gust 38 N/A N/A 101.4 -4 55 -12 -14
15:30 WSW 33 gust 38 N/A N/A 101.2 -3 53 -12 -13
14:30 WSW 33 gust 43 N/A N/A 101.0 -3 56 -11 -13
13:30 WSW 40 gust 45 N/A N/A 100.9 -3 59 -10 -14
Map of Atlantic - Newfoundland marine weather areas Southwestern Grand Banks - 44138 Banquereau - 44139 Tail of the Bank - 44140 Nickerson Bank - 44251 Northeast Burgeo Bank - 44255 Blanc-Sablon Airport Cap Whittle Chevery Natashquan Airport Heath Point Miscou Island Grand Étang Ingonish Beach North Mountain St.Paul Island J.A. Douglas McCurdy Sydney Airport Charlottetown Airport East Point North Cape Argentia Bonavista Burgeo Cape Race Corner Brook Daniel's Harbour Englee Ferolle Point La Scie Port aux Basques Rocky Harbour Sagona Island St. Anthony Airport St. John's Int'l Airport St. Lawrence Stephenville Airport Twillingate Winterland Wreckhouse Cartwright Airport Mary's Harbour Grates Cove Pool's Island Marticot Island Long Pond Îles de la Madeleine Airport
Legend:
buoy Buoy
land station Land Station

Atlantic - Newfoundland Area

Another Region

What we are doing

Date modified: